Hlavní strana
METAR-TAF:

METAR-TAF

Letiště :

Zeltweg, Rakousko

zeměpisná šířka: 47-12N, zeměpisná délka: 014-45E, výška: 677 m

Aktuální stav počasí

Zpráva byla vytvořena před 30 minutami, v 06:50 UTC
vítr z různých směrů 2 kt
Teplota 20°C
Vlhkost vzduchu 68%
Tlak 1017 hPa
Viditelnost 10 km a více
Polojasno ve výšce 37000 ft

METAR: LOXZ 190650Z VRB02KT 9999 SCT370 20/14 Q1017 NOSIG

Čas: 09:20 (07:20 UTC)

Předpověď počasí

Zpráva byla vytvořena před 2 hodinami a 5 minutami, v 05:15 UTC
Předpověď platná od 19 v 06 UTC do 19 v 15 UTC
vítr z různých směrů 3 kt
Viditelnost 10 km a více
Skoro jasno ve výšce 6000 ft
Změna
od 19 v 12 UTC do 19 v 14 UTC
Jihojihozápadní vítr 11 kt

TAF: LOXZ 190515Z 1906/1915 VRB03KT 9999 FEW060 BECMG 1912/1914 21011KT

Stav a předpovědi počasí z více než 4 000 letišť (zprávy METAR a TAF).

Červené a žluté tečky na mapě představují dostupné meteorologické stanice.

Když kurzor umístíte na tečku, zobrazí se název stanice.

Pak kliknutím zobrazíte stav a předpověď počasí.

Chcete-li změnit mapu, kliknutím na zelené tlačítko se znaménkem +mapu přiblížíte, kliknutím na zelené tlačítko se znaménkem – mapu oddálíte a kliknutím na zelené šipky přejdete na sousední mapy.


METAR-TAF: